sensor_id;sensor_type;location;lat;lon;timestamp;temperature;humidity
67586;SHT31;55785;47.946;20.540;2023-12-04T00:00:57;-2.41;87.89
67586;SHT31;55785;47.946;20.540;2023-12-04T00:03:22;-2.40;88.06
67586;SHT31;55785;47.946;20.540;2023-12-04T00:05:47;-2.37;88.02
67586;SHT31;55785;47.946;20.540;2023-12-04T00:08:13;-2.36;88.12
67586;SHT31;55785;47.946;20.540;2023-12-04T00:10:38;-2.31;87.58
67586;SHT31;55785;47.946;20.540;2023-12-04T00:13:04;-2.28;87.67
67586;SHT31;55785;47.946;20.540;2023-12-04T00:15:29;-2.30;88.01
67586;SHT31;55785;47.946;20.540;2023-12-04T00:17:54;-2.27;87.97
67586;SHT31;55785;47.946;20.540;2023-12-04T00:20:20;-2.19;87.89
67586;SHT31;55785;47.946;20.540;2023-12-04T00:22:45;-2.11;87.62
67586;SHT31;55785;47.946;20.540;2023-12-04T00:25:10;-2.10;87.50
67586;SHT31;55785;47.946;20.540;2023-12-04T00:27:36;-2.14;87.44
67586;SHT31;55785;47.946;20.540;2023-12-04T00:30:01;-2.11;87.42
67586;SHT31;55785;47.946;20.540;2023-12-04T00:32:26;-2.10;87.49
67586;SHT31;55785;47.946;20.540;2023-12-04T00:34:52;-2.10;87.15
67586;SHT31;55785;47.946;20.540;2023-12-04T00:37:17;-2.11;86.72
67586;SHT31;55785;47.946;20.540;2023-12-04T00:39:42;-2.14;86.66
67586;SHT31;55785;47.946;20.540;2023-12-04T00:42:08;-2.11;86.42
67586;SHT31;55785;47.946;20.540;2023-12-04T00:44:33;-2.17;86.42
67586;SHT31;55785;47.946;20.540;2023-12-04T00:46:58;-2.23;86.21
67586;SHT31;55785;47.946;20.540;2023-12-04T00:49:24;-2.24;86.27
67586;SHT31;55785;47.946;20.540;2023-12-04T00:51:50;-2.31;86.16
67586;SHT31;55785;47.946;20.540;2023-12-04T00:54:15;-2.37;86.09
67586;SHT31;55785;47.946;20.540;2023-12-04T00:56:40;-2.36;86.39
67586;SHT31;55785;47.946;20.540;2023-12-04T00:59:08;-2.37;86.32
67586;SHT31;55785;47.946;20.540;2023-12-04T01:01:35;-2.40;86.06
67586;SHT31;55785;47.946;20.540;2023-12-04T01:04:01;-2.51;85.94
67586;SHT31;55785;47.946;20.540;2023-12-04T01:06:26;-2.64;86.09
67586;SHT31;55785;47.946;20.540;2023-12-04T01:08:53;-2.68;86.29
67586;SHT31;55785;47.946;20.540;2023-12-04T01:11:19;-2.78;86.78
67586;SHT31;55785;47.946;20.540;2023-12-04T01:13:44;-2.78;86.86
67586;SHT31;55785;47.946;20.540;2023-12-04T01:16:10;-2.88;86.82
67586;SHT31;55785;47.946;20.540;2023-12-04T01:18:35;-2.95;87.22
67586;SHT31;55785;47.946;20.540;2023-12-04T01:21:00;-2.99;87.36
67586;SHT31;55785;47.946;20.540;2023-12-04T01:23:26;-3.03;87.23
67586;SHT31;55785;47.946;20.540;2023-12-04T01:25:51;-3.17;87.11
67586;SHT31;55785;47.946;20.540;2023-12-04T01:28:17;-3.27;87.25
67586;SHT31;55785;47.946;20.540;2023-12-04T01:30:42;-3.28;87.48
67586;SHT31;55785;47.946;20.540;2023-12-04T01:33:07;-3.44;87.50
67586;SHT31;55785;47.946;20.540;2023-12-04T01:35:33;-3.54;88.00
67586;SHT31;55785;47.946;20.540;2023-12-04T01:37:58;-3.54;88.68
67586;SHT31;55785;47.946;20.540;2023-12-04T01:40:23;-3.54;88.82
67586;SHT31;55785;47.946;20.540;2023-12-04T01:42:49;-3.59;88.84
67586;SHT31;55785;47.946;20.540;2023-12-04T01:45:14;-3.64;89.07
67586;SHT31;55785;47.946;20.540;2023-12-04T01:47:39;-3.68;89.10
67586;SHT31;55785;47.946;20.540;2023-12-04T01:50:06;-3.69;89.15
67586;SHT31;55785;47.946;20.540;2023-12-04T01:52:32;-3.66;89.18
67586;SHT31;55785;47.946;20.540;2023-12-04T01:54:57;-3.69;89.21
67586;SHT31;55785;47.946;20.540;2023-12-04T01:57:23;-3.69;89.47
67586;SHT31;55785;47.946;20.540;2023-12-04T01:59:48;-3.66;89.63
67586;SHT31;55785;47.946;20.540;2023-12-04T02:02:14;-3.59;89.46
67586;SHT31;55785;47.946;20.540;2023-12-04T02:04:39;-3.50;89.56
67586;SHT31;55785;47.946;20.540;2023-12-04T02:07:04;-3.41;89.56
67586;SHT31;55785;47.946;20.540;2023-12-04T02:09:30;-3.37;89.68
67586;SHT31;55785;47.946;20.540;2023-12-04T02:11:56;-3.31;89.90
67586;SHT31;55785;47.946;20.540;2023-12-04T02:14:22;-3.27;89.97
67586;SHT31;55785;47.946;20.540;2023-12-04T02:16:48;-3.23;89.95
67586;SHT31;55785;47.946;20.540;2023-12-04T02:19:14;-3.21;89.84
67586;SHT31;55785;47.946;20.540;2023-12-04T02:21:40;-3.16;90.02
67586;SHT31;55785;47.946;20.540;2023-12-04T02:24:05;-3.13;90.26
67586;SHT31;55785;47.946;20.540;2023-12-04T02:26:58;-3.07;90.42
67586;SHT31;55785;47.946;20.540;2023-12-04T02:29:32;-3.04;90.60
67586;SHT31;55785;47.946;20.540;2023-12-04T02:32:02;-3.01;90.65
67586;SHT31;55785;47.946;20.540;2023-12-04T02:34:30;-3.03;91.03
67586;SHT31;55785;47.946;20.540;2023-12-04T02:36:58;-3.06;91.23
67586;SHT31;55785;47.946;20.540;2023-12-04T02:39:24;-3.03;91.25
67586;SHT31;55785;47.946;20.540;2023-12-04T02:41:50;-3.00;91.12
67586;SHT31;55785;47.946;20.540;2023-12-04T02:44:16;-2.97;90.93
67586;SHT31;55785;47.946;20.540;2023-12-04T02:46:41;-2.97;90.67
67586;SHT31;55785;47.946;20.540;2023-12-04T02:49:06;-3.01;90.46
67586;SHT31;55785;47.946;20.540;2023-12-04T02:51:32;-3.00;90.22
67586;SHT31;55785;47.946;20.540;2023-12-04T02:53:57;-3.06;89.99
67586;SHT31;55785;47.946;20.540;2023-12-04T02:56:22;-3.09;89.82
67586;SHT31;55785;47.946;20.540;2023-12-04T02:58:48;-3.23;89.69
67586;SHT31;55785;47.946;20.540;2023-12-04T03:01:13;-3.36;89.08
67586;SHT31;55785;47.946;20.540;2023-12-04T03:03:39;-3.45;88.91
67586;SHT31;55785;47.946;20.540;2023-12-04T03:06:04;-3.55;88.84
67586;SHT31;55785;47.946;20.540;2023-12-04T03:08:30;-3.62;89.01
67586;SHT31;55785;47.946;20.540;2023-12-04T03:10:55;-3.68;89.41
67586;SHT31;55785;47.946;20.540;2023-12-04T03:13:20;-3.72;89.48
67586;SHT31;55785;47.946;20.540;2023-12-04T03:15:46;-3.74;89.85
67586;SHT31;55785;47.946;20.540;2023-12-04T03:18:11;-3.71;89.80
67586;SHT31;55785;47.946;20.540;2023-12-04T03:20:36;-3.68;89.68
67586;SHT31;55785;47.946;20.540;2023-12-04T03:23:02;-3.75;89.11
67586;SHT31;55785;47.946;20.540;2023-12-04T03:25:27;-3.96;87.93
67586;SHT31;55785;47.946;20.540;2023-12-04T03:27:52;-4.00;88.17
67586;SHT31;55785;47.946;20.540;2023-12-04T03:30:18;-4.05;88.37
67586;SHT31;55785;47.946;20.540;2023-12-04T03:32:43;-4.13;88.56
67586;SHT31;55785;47.946;20.540;2023-12-04T03:35:08;-4.18;88.97
67586;SHT31;55785;47.946;20.540;2023-12-04T03:37:34;-4.20;89.21
67586;SHT31;55785;47.946;20.540;2023-12-04T03:39:59;-4.17;89.35
67586;SHT31;55785;47.946;20.540;2023-12-04T03:42:24;-4.10;89.48
67586;SHT31;55785;47.946;20.540;2023-12-04T03:44:50;-4.03;89.42
67586;SHT31;55785;47.946;20.540;2023-12-04T03:47:15;-4.03;89.68
67586;SHT31;55785;47.946;20.540;2023-12-04T03:49:40;-4.03;89.77
67586;SHT31;55785;47.946;20.540;2023-12-04T03:52:06;-4.03;89.93
67586;SHT31;55785;47.946;20.540;2023-12-04T03:54:31;-3.99;90.17
67586;SHT31;55785;47.946;20.540;2023-12-04T03:56:57;-3.93;90.57
67586;SHT31;55785;47.946;20.540;2023-12-04T03:59:22;-3.92;90.76
67586;SHT31;55785;47.946;20.540;2023-12-04T04:01:47;-3.95;90.71
67586;SHT31;55785;47.946;20.540;2023-12-04T04:04:13;-3.93;90.75
67586;SHT31;55785;47.946;20.540;2023-12-04T04:06:38;-3.87;90.67
67586;SHT31;55785;47.946;20.540;2023-12-04T04:09:04;-3.79;90.31
67586;SHT31;55785;47.946;20.540;2023-12-04T04:11:30;-3.76;90.29
67586;SHT31;55785;47.946;20.540;2023-12-04T04:13:55;-3.75;90.38
67586;SHT31;55785;47.946;20.540;2023-12-04T04:16:20;-3.65;90.49
67586;SHT31;55785;47.946;20.540;2023-12-04T04:18:46;-3.65;90.48
67586;SHT31;55785;47.946;20.540;2023-12-04T04:21:11;-3.57;90.48
67586;SHT31;55785;47.946;20.540;2023-12-04T04:23:36;-3.50;90.29
67586;SHT31;55785;47.946;20.540;2023-12-04T04:26:02;-3.47;90.11
67586;SHT31;55785;47.946;20.540;2023-12-04T04:28:27;-3.44;89.87
67586;SHT31;55785;47.946;20.540;2023-12-04T04:30:53;-3.38;89.54
67586;SHT31;55785;47.946;20.540;2023-12-04T04:33:18;-3.40;89.53
67586;SHT31;55785;47.946;20.540;2023-12-04T04:35:43;-3.44;90.05
67586;SHT31;55785;47.946;20.540;2023-12-04T04:38:09;-3.43;89.85
67586;SHT31;55785;47.946;20.540;2023-12-04T04:40:34;-3.34;89.92
67586;SHT31;55785;47.946;20.540;2023-12-04T04:43:00;-3.36;89.93
67586;SHT31;55785;47.946;20.540;2023-12-04T04:45:25;-3.36;89.99
67586;SHT31;55785;47.946;20.540;2023-12-04T04:47:50;-3.31;89.98
67586;SHT31;55785;47.946;20.540;2023-12-04T04:50:16;-3.27;89.99
67586;SHT31;55785;47.946;20.540;2023-12-04T04:52:41;-3.23;89.81
67586;SHT31;55785;47.946;20.540;2023-12-04T04:55:07;-3.17;89.73
67586;SHT31;55785;47.946;20.540;2023-12-04T04:57:32;-3.13;89.72
67586;SHT31;55785;47.946;20.540;2023-12-04T04:59:58;-3.07;89.76
67586;SHT31;55785;47.946;20.540;2023-12-04T05:02:23;-3.07;89.79
67586;SHT31;55785;47.946;20.540;2023-12-04T05:04:48;-3.06;89.85
67586;SHT31;55785;47.946;20.540;2023-12-04T05:07:14;-3.03;90.05
67586;SHT31;55785;47.946;20.540;2023-12-04T05:09:39;-3.01;90.17
67586;SHT31;55785;47.946;20.540;2023-12-04T05:12:05;-3.01;90.13
67586;SHT31;55785;47.946;20.540;2023-12-04T05:14:30;-3.01;90.12
67586;SHT31;55785;47.946;20.540;2023-12-04T05:16:56;-3.03;90.19
67586;SHT31;55785;47.946;20.540;2023-12-04T05:19:21;-3.03;90.23
67586;SHT31;55785;47.946;20.540;2023-12-04T05:21:46;-3.04;90.23
67586;SHT31;55785;47.946;20.540;2023-12-04T05:24:12;-2.99;90.32
67586;SHT31;55785;47.946;20.540;2023-12-04T05:26:37;-2.96;90.20
67586;SHT31;55785;47.946;20.540;2023-12-04T05:29:02;-2.89;90.17
67586;SHT31;55785;47.946;20.540;2023-12-04T05:31:28;-2.86;90.15
67586;SHT31;55785;47.946;20.540;2023-12-04T05:33:53;-2.90;90.17
67586;SHT31;55785;47.946;20.540;2023-12-04T05:36:18;-2.96;90.15
67586;SHT31;55785;47.946;20.540;2023-12-04T05:38:45;-3.04;90.37
67586;SHT31;55785;47.946;20.540;2023-12-04T05:41:10;-3.07;90.82
67586;SHT31;55785;47.946;20.540;2023-12-04T05:43:35;-3.10;91.00
67586;SHT31;55785;47.946;20.540;2023-12-04T05:46:01;-3.13;91.32
67586;SHT31;55785;47.946;20.540;2023-12-04T05:48:26;-3.09;91.44
67586;SHT31;55785;47.946;20.540;2023-12-04T05:50:51;-3.03;91.54
67586;SHT31;55785;47.946;20.540;2023-12-04T05:53:17;-3.00;91.51
67586;SHT31;55785;47.946;20.540;2023-12-04T05:55:42;-3.03;91.52
67586;SHT31;55785;47.946;20.540;2023-12-04T05:58:08;-2.96;91.47
67586;SHT31;55785;47.946;20.540;2023-12-04T06:00:33;-2.86;91.33
67586;SHT31;55785;47.946;20.540;2023-12-04T06:02:58;-2.85;91.24
67586;SHT31;55785;47.946;20.540;2023-12-04T06:05:24;-2.75;91.08
67586;SHT31;55785;47.946;20.540;2023-12-04T06:07:49;-2.70;90.83
67586;SHT31;55785;47.946;20.540;2023-12-04T06:10:14;-2.72;90.29
67586;SHT31;55785;47.946;20.540;2023-12-04T06:12:40;-2.75;89.42
67586;SHT31;55785;47.946;20.540;2023-12-04T06:15:06;-2.72;89.12
67586;SHT31;55785;47.946;20.540;2023-12-04T06:17:31;-2.78;88.87
67586;SHT31;55785;47.946;20.540;2023-12-04T06:19:56;-2.76;88.61
67586;SHT31;55785;47.946;20.540;2023-12-04T06:22:22;-2.79;88.68
67586;SHT31;55785;47.946;20.540;2023-12-04T06:24:48;-2.78;88.86
67586;SHT31;55785;47.946;20.540;2023-12-04T06:27:18;-2.83;88.89
67586;SHT31;55785;47.946;20.540;2023-12-04T06:29:44;-2.80;88.90
67586;SHT31;55785;47.946;20.540;2023-12-04T06:32:10;-2.86;89.03
67586;SHT31;55785;47.946;20.540;2023-12-04T06:34:36;-2.90;89.36
67586;SHT31;55785;47.946;20.540;2023-12-04T06:37:09;-2.96;89.45
67586;SHT31;55785;47.946;20.540;2023-12-04T06:39:37;-2.93;89.79
67586;SHT31;55785;47.946;20.540;2023-12-04T06:42:03;-2.97;89.89
67586;SHT31;55785;47.946;20.540;2023-12-04T06:44:29;-2.93;89.75
67586;SHT31;55785;47.946;20.540;2023-12-04T06:46:56;-2.86;89.38
67586;SHT31;55785;47.946;20.540;2023-12-04T06:49:24;-2.82;89.20
67586;SHT31;55785;47.946;20.540;2023-12-04T06:51:50;-2.92;88.91
67586;SHT31;55785;47.946;20.540;2023-12-04T06:54:15;-2.96;88.94
67586;SHT31;55785;47.946;20.540;2023-12-04T06:56:40;-2.95;88.76
67586;SHT31;55785;47.946;20.540;2023-12-04T06:59:06;-2.99;88.76
67586;SHT31;55785;47.946;20.540;2023-12-04T07:01:31;-2.96;88.92
67586;SHT31;55785;47.946;20.540;2023-12-04T07:03:56;-2.89;88.86
67586;SHT31;55785;47.946;20.540;2023-12-04T07:06:22;-2.90;88.80
67586;SHT31;55785;47.946;20.540;2023-12-04T07:08:48;-2.97;88.76
67586;SHT31;55785;47.946;20.540;2023-12-04T07:11:13;-2.90;88.78
67586;SHT31;55785;47.946;20.540;2023-12-04T07:13:40;-2.79;88.78
67586;SHT31;55785;47.946;20.540;2023-12-04T07:16:06;-2.70;88.65
67586;SHT31;55785;47.946;20.540;2023-12-04T07:18:32;-2.66;88.44
67586;SHT31;55785;47.946;20.540;2023-12-04T07:20:57;-2.59;88.30
67586;SHT31;55785;47.946;20.540;2023-12-04T07:23:22;-2.57;88.00
67586;SHT31;55785;47.946;20.540;2023-12-04T07:25:48;-2.58;87.55
67586;SHT31;55785;47.946;20.540;2023-12-04T07:28:13;-2.52;87.45
67586;SHT31;55785;47.946;20.540;2023-12-04T07:30:38;-2.51;87.30
67586;SHT31;55785;47.946;20.540;2023-12-04T07:33:04;-2.52;87.20
67586;SHT31;55785;47.946;20.540;2023-12-04T07:35:29;-2.48;87.03
67586;SHT31;55785;47.946;20.540;2023-12-04T07:37:54;-2.48;86.84
67586;SHT31;55785;47.946;20.540;2023-12-04T07:40:20;-2.44;86.90
67586;SHT31;55785;47.946;20.540;2023-12-04T07:42:45;-2.44;86.90
67586;SHT31;55785;47.946;20.540;2023-12-04T07:45:10;-2.38;87.22
67586;SHT31;55785;47.946;20.540;2023-12-04T07:47:36;-2.33;87.40
67586;SHT31;55785;47.946;20.540;2023-12-04T07:50:02;-2.27;86.95
67586;SHT31;55785;47.946;20.540;2023-12-04T07:52:27;-2.30;86.55
67586;SHT31;55785;47.946;20.540;2023-12-04T07:54:52;-2.27;86.50
67586;SHT31;55785;47.946;20.540;2023-12-04T07:57:18;-2.24;86.39
67586;SHT31;55785;47.946;20.540;2023-12-04T07:59:44;-2.20;86.15
67586;SHT31;55785;47.946;20.540;2023-12-04T08:02:09;-2.17;85.70
67586;SHT31;55785;47.946;20.540;2023-12-04T08:04:34;-2.17;85.47
67586;SHT31;55785;47.946;20.540;2023-12-04T08:07:00;-2.14;84.92
67586;SHT31;55785;47.946;20.540;2023-12-04T08:09:25;-2.13;84.53
67586;SHT31;55785;47.946;20.540;2023-12-04T08:11:50;-2.07;84.43
67586;SHT31;55785;47.946;20.540;2023-12-04T08:14:16;-2.07;84.16
67586;SHT31;55785;47.946;20.540;2023-12-04T08:16:41;-2.09;84.52
67586;SHT31;55785;47.946;20.540;2023-12-04T08:19:07;-2.07;84.62
67586;SHT31;55785;47.946;20.540;2023-12-04T08:21:32;-2.04;84.77
67586;SHT31;55785;47.946;20.540;2023-12-04T08:23:57;-2.04;84.59
67586;SHT31;55785;47.946;20.540;2023-12-04T08:26:24;-2.00;85.02
67586;SHT31;55785;47.946;20.540;2023-12-04T08:28:50;-1.94;85.29
67586;SHT31;55785;47.946;20.540;2023-12-04T08:31:16;-1.93;84.99
67586;SHT31;55785;47.946;20.540;2023-12-04T08:33:42;-1.97;84.38
67586;SHT31;55785;47.946;20.540;2023-12-04T08:36:08;-1.89;84.61
67586;SHT31;55785;47.946;20.540;2023-12-04T08:38:33;-1.80;84.61
67586;SHT31;55785;47.946;20.540;2023-12-04T08:40:59;-1.76;84.08
67586;SHT31;55785;47.946;20.540;2023-12-04T08:43:24;-1.73;83.58
67586;SHT31;55785;47.946;20.540;2023-12-04T08:45:49;-1.69;84.39
67586;SHT31;55785;47.946;20.540;2023-12-04T08:48:15;-1.69;84.09
67586;SHT31;55785;47.946;20.540;2023-12-04T08:50:40;-1.87;83.07
67586;SHT31;55785;47.946;20.540;2023-12-04T08:53:05;-1.89;83.21
67586;SHT31;55785;47.946;20.540;2023-12-04T08:55:31;-1.83;83.39
67586;SHT31;55785;47.946;20.540;2023-12-04T08:57:56;-1.75;83.21
67586;SHT31;55785;47.946;20.540;2023-12-04T09:00:21;-1.62;82.98
67586;SHT31;55785;47.946;20.540;2023-12-04T09:02:48;-1.56;82.47
67586;SHT31;55785;47.946;20.540;2023-12-04T09:05:13;-1.55;82.56
67586;SHT31;55785;47.946;20.540;2023-12-04T09:07:38;-1.51;82.36
67586;SHT31;55785;47.946;20.540;2023-12-04T09:10:04;-1.49;81.15
67586;SHT31;55785;47.946;20.540;2023-12-04T09:12:30;-1.51;80.63
67586;SHT31;55785;47.946;20.540;2023-12-04T09:14:55;-1.49;80.32
67586;SHT31;55785;47.946;20.540;2023-12-04T09:17:20;-1.38;81.92
67586;SHT31;55785;47.946;20.540;2023-12-04T09:19:46;-1.31;80.92
67586;SHT31;55785;47.946;20.540;2023-12-04T09:22:11;-1.25;82.18
67586;SHT31;55785;47.946;20.540;2023-12-04T09:24:36;-1.20;81.29
67586;SHT31;55785;47.946;20.540;2023-12-04T09:27:02;-1.10;81.90
67586;SHT31;55785;47.946;20.540;2023-12-04T09:29:27;-1.01;82.45
67586;SHT31;55785;47.946;20.540;2023-12-04T09:31:53;-1.08;79.84
67586;SHT31;55785;47.946;20.540;2023-12-04T09:34:18;-1.00;80.10
67586;SHT31;55785;47.946;20.540;2023-12-04T09:36:43;-1.03;79.98
67586;SHT31;55785;47.946;20.540;2023-12-04T09:39:09;-0.93;80.89
67586;SHT31;55785;47.946;20.540;2023-12-04T09:41:35;-0.94;80.95
67586;SHT31;55785;47.946;20.540;2023-12-04T09:44:00;-1.03;79.26
67586;SHT31;55785;47.946;20.540;2023-12-04T09:46:26;-0.86;80.97
67586;SHT31;55785;47.946;20.540;2023-12-04T09:48:52;-0.72;80.20
67586;SHT31;55785;47.946;20.540;2023-12-04T09:51:18;-0.66;80.57
67586;SHT31;55785;47.946;20.540;2023-12-04T09:53:47;-0.56;79.20
67586;SHT31;55785;47.946;20.540;2023-12-04T09:56:14;-0.73;77.66
67586;SHT31;55785;47.946;20.540;2023-12-04T09:58:41;-0.79;77.82
67586;SHT31;55785;47.946;20.540;2023-12-04T10:01:07;-0.83;78.61
67586;SHT31;55785;47.946;20.540;2023-12-04T10:03:34;-0.80;78.41
67586;SHT31;55785;47.946;20.540;2023-12-04T10:06:00;-0.73;78.16
67586;SHT31;55785;47.946;20.540;2023-12-04T10:08:25;-0.62;78.44
67586;SHT31;55785;47.946;20.540;2023-12-04T10:10:50;-0.48;78.96
67586;SHT31;55785;47.946;20.540;2023-12-04T10:13:16;-0.26;78.13
67586;SHT31;55785;47.946;20.540;2023-12-04T10:15:48;-0.21;75.06
67586;SHT31;55785;47.946;20.540;2023-12-04T10:18:27;0.05;75.85
67586;SHT31;55785;47.946;20.540;2023-12-04T10:20:53;0.24;73.45
67586;SHT31;55785;47.946;20.540;2023-12-04T10:23:19;0.38;70.01
67586;SHT31;55785;47.946;20.540;2023-12-04T10:25:44;0.41;68.93
67586;SHT31;55785;47.946;20.540;2023-12-04T10:28:12;0.11;69.33
67586;SHT31;55785;47.946;20.540;2023-12-04T10:30:38;0.10;70.36
67586;SHT31;55785;47.946;20.540;2023-12-04T10:33:05;0.41;71.98
67586;SHT31;55785;47.946;20.540;2023-12-04T10:35:35;0.36;70.17
67586;SHT31;55785;47.946;20.540;2023-12-04T10:38:01;0.50;70.13
67586;SHT31;55785;47.946;20.540;2023-12-04T10:40:28;0.62;67.88
67586;SHT31;55785;47.946;20.540;2023-12-04T10:43:16;0.41;69.63
67586;SHT31;55785;47.946;20.540;2023-12-04T10:45:44;0.51;68.26
67586;SHT31;55785;47.946;20.540;2023-12-04T10:48:10;0.61;66.87
67586;SHT31;55785;47.946;20.540;2023-12-04T10:50:37;0.55;68.24
67586;SHT31;55785;47.946;20.540;2023-12-04T10:53:06;0.69;66.90
67586;SHT31;55785;47.946;20.540;2023-12-04T10:55:32;0.10;69.92
67586;SHT31;55785;47.946;20.540;2023-12-04T10:57:59;-0.07;68.79
67586;SHT31;55785;47.946;20.540;2023-12-04T11:00:28;0.02;69.12
67586;SHT31;55785;47.946;20.540;2023-12-04T11:02:55;-0.07;69.56
67586;SHT31;55785;47.946;20.540;2023-12-04T11:05:23;0.16;70.42
67586;SHT31;55785;47.946;20.540;2023-12-04T11:07:54;0.58;69.84
67586;SHT31;55785;47.946;20.540;2023-12-04T11:10:22;1.07;70.70
67586;SHT31;55785;47.946;20.540;2023-12-04T11:12:52;1.58;66.00
67586;SHT31;55785;47.946;20.540;2023-12-04T11:15:23;2.23;62.60
67586;SHT31;55785;47.946;20.540;2023-12-04T11:17:52;2.90;60.57
67586;SHT31;55785;47.946;20.540;2023-12-04T11:20:22;3.67;57.43
67586;SHT31;55785;47.946;20.540;2023-12-04T11:22:49;3.97;56.54
67586;SHT31;55785;47.946;20.540;2023-12-04T11:25:16;2.91;59.48
67586;SHT31;55785;47.946;20.540;2023-12-04T11:27:42;2.57;62.59
67586;SHT31;55785;47.946;20.540;2023-12-04T11:30:08;2.88;61.89
67586;SHT31;55785;47.946;20.540;2023-12-04T11:32:48;2.80;61.64
67586;SHT31;55785;47.946;20.540;2023-12-04T11:35:15;2.37;61.13
67586;SHT31;55785;47.946;20.540;2023-12-04T11:37:42;2.08;62.71
67586;SHT31;55785;47.946;20.540;2023-12-04T11:40:08;1.97;63.39
67586;SHT31;55785;47.946;20.540;2023-12-04T11:42:35;1.65;63.76
67586;SHT31;55785;47.946;20.540;2023-12-04T11:45:01;2.03;62.60
67586;SHT31;55785;47.946;20.540;2023-12-04T11:47:30;1.65;64.18
67586;SHT31;55785;47.946;20.540;2023-12-04T11:49:57;1.30;66.68
67586;SHT31;55785;47.946;20.540;2023-12-04T11:52:33;0.82;66.80
67586;SHT31;55785;47.946;20.540;2023-12-04T11:55:03;0.72;68.28
67586;SHT31;55785;47.946;20.540;2023-12-04T11:57:32;0.99;67.07
67586;SHT31;55785;47.946;20.540;2023-12-04T12:00:12;0.84;67.24
67586;SHT31;55785;47.946;20.540;2023-12-04T12:02:39;0.81;67.65
67586;SHT31;55785;47.946;20.540;2023-12-04T12:05:06;0.60;68.26
67586;SHT31;55785;47.946;20.540;2023-12-04T12:07:31;0.95;67.59
67586;SHT31;55785;47.946;20.540;2023-12-04T12:09:57;1.17;67.60
67586;SHT31;55785;47.946;20.540;2023-12-04T12:12:22;0.97;67.68
67586;SHT31;55785;47.946;20.540;2023-12-04T12:14:48;0.55;66.88
67586;SHT31;55785;47.946;20.540;2023-12-04T12:17:13;0.74;67.82
67586;SHT31;55785;47.946;20.540;2023-12-04T12:19:38;0.71;68.84
67586;SHT31;55785;47.946;20.540;2023-12-04T12:22:04;0.78;69.57
67586;SHT31;55785;47.946;20.540;2023-12-04T12:24:29;0.47;68.58
67586;SHT31;55785;47.946;20.540;2023-12-04T12:26:55;0.26;71.42
67586;SHT31;55785;47.946;20.540;2023-12-04T12:29:20;0.24;71.28
67586;SHT31;55785;47.946;20.540;2023-12-04T12:31:46;0.10;70.39
67586;SHT31;55785;47.946;20.540;2023-12-04T12:34:11;0.03;71.62
67586;SHT31;55785;47.946;20.540;2023-12-04T12:36:36;0.02;71.63
67586;SHT31;55785;47.946;20.540;2023-12-04T12:39:02;0.07;71.43
67586;SHT31;55785;47.946;20.540;2023-12-04T12:41:28;-0.01;71.77
67586;SHT31;55785;47.946;20.540;2023-12-04T12:43:53;0.03;71.29
67586;SHT31;55785;47.946;20.540;2023-12-04T12:46:18;-0.08;71.16
67586;SHT31;55785;47.946;20.540;2023-12-04T12:48:44;-0.18;72.58
67586;SHT31;55785;47.946;20.540;2023-12-04T12:51:09;-0.04;72.43
67586;SHT31;55785;47.946;20.540;2023-12-04T12:53:35;-0.13;71.96
67586;SHT31;55785;47.946;20.540;2023-12-04T12:56:00;-0.05;72.25
67586;SHT31;55785;47.946;20.540;2023-12-04T12:58:27;-0.10;73.04
67586;SHT31;55785;47.946;20.540;2023-12-04T13:00:52;-0.29;72.48
67586;SHT31;55785;47.946;20.540;2023-12-04T13:03:18;-0.26;72.70
67586;SHT31;55785;47.946;20.540;2023-12-04T13:05:44;-0.28;72.30
67586;SHT31;55785;47.946;20.540;2023-12-04T13:08:10;-0.36;72.49
67586;SHT31;55785;47.946;20.540;2023-12-04T13:10:35;-0.42;72.82
67586;SHT31;55785;47.946;20.540;2023-12-04T13:13:01;-0.31;73.11
67586;SHT31;55785;47.946;20.540;2023-12-04T13:15:26;-0.22;73.22
67586;SHT31;55785;47.946;20.540;2023-12-04T13:17:51;-0.14;73.23
67586;SHT31;55785;47.946;20.540;2023-12-04T13:20:17;-0.08;73.14
67586;SHT31;55785;47.946;20.540;2023-12-04T13:22:42;-0.07;73.20
67586;SHT31;55785;47.946;20.540;2023-12-04T13:25:08;-0.05;73.51
67586;SHT31;55785;47.946;20.540;2023-12-04T13:27:33;-0.21;73.95
67586;SHT31;55785;47.946;20.540;2023-12-04T13:29:58;-0.39;73.87
67586;SHT31;55785;47.946;20.540;2023-12-04T13:32:24;-0.29;74.56
67586;SHT31;55785;47.946;20.540;2023-12-04T13:34:49;-0.42;74.29
67586;SHT31;55785;47.946;20.540;2023-12-04T13:37:15;-0.51;74.49
67586;SHT31;55785;47.946;20.540;2023-12-04T13:39:40;-0.56;75.00
67586;SHT31;55785;47.946;20.540;2023-12-04T13:42:05;-0.62;74.80
67586;SHT31;55785;47.946;20.540;2023-12-04T13:44:31;-0.63;75.02
67586;SHT31;55785;47.946;20.540;2023-12-04T13:46:56;-0.68;74.85
67586;SHT31;55785;47.946;20.540;2023-12-04T13:49:21;-0.65;76.51
67586;SHT31;55785;47.946;20.540;2023-12-04T13:51:47;-0.68;76.56
67586;SHT31;55785;47.946;20.540;2023-12-04T13:54:12;-0.66;76.89
67586;SHT31;55785;47.946;20.540;2023-12-04T13:56:37;-0.82;77.04
67586;SHT31;55785;47.946;20.540;2023-12-04T13:59:03;-0.94;77.29
67586;SHT31;55785;47.946;20.540;2023-12-04T14:01:28;-0.93;77.93
67586;SHT31;55785;47.946;20.540;2023-12-04T14:03:54;-0.99;77.67
67586;SHT31;55785;47.946;20.540;2023-12-04T14:06:20;-1.08;78.09
67586;SHT31;55785;47.946;20.540;2023-12-04T14:08:45;-1.28;78.19
67586;SHT31;55785;47.946;20.540;2023-12-04T14:11:11;-1.34;79.03
67586;SHT31;55785;47.946;20.540;2023-12-04T14:13:36;-1.40;79.20
67586;SHT31;55785;47.946;20.540;2023-12-04T14:16:02;-1.37;79.33
67586;SHT31;55785;47.946;20.540;2023-12-04T14:18:27;-1.38;79.58
67586;SHT31;55785;47.946;20.540;2023-12-04T14:20:53;-1.47;79.87
67586;SHT31;55785;47.946;20.540;2023-12-04T14:23:18;-1.54;80.31
67586;SHT31;55785;47.946;20.540;2023-12-04T14:25:43;-1.62;80.82
67586;SHT31;55785;47.946;20.540;2023-12-04T14:28:09;-1.62;81.18
67586;SHT31;55785;47.946;20.540;2023-12-04T14:30:34;-1.66;81.59
67586;SHT31;55785;47.946;20.540;2023-12-04T14:32:59;-1.70;81.27
67586;SHT31;55785;47.946;20.540;2023-12-04T14:35:25;-1.70;81.40
67586;SHT31;55785;47.946;20.540;2023-12-04T14:37:50;-1.59;81.53
67586;SHT31;55785;47.946;20.540;2023-12-04T14:40:16;-1.55;81.05
67586;SHT31;55785;47.946;20.540;2023-12-04T14:42:42;-1.55;80.78
67586;SHT31;55785;47.946;20.540;2023-12-04T14:45:08;-1.55;80.49
67586;SHT31;55785;47.946;20.540;2023-12-04T14:47:33;-1.51;80.60
67586;SHT31;55785;47.946;20.540;2023-12-04T14:49:59;-1.49;80.84
67586;SHT31;55785;47.946;20.540;2023-12-04T14:52:24;-1.49;80.69
67586;SHT31;55785;47.946;20.540;2023-12-04T14:54:50;-1.49;80.59
67586;SHT31;55785;47.946;20.540;2023-12-04T14:57:15;-1.52;81.01
67586;SHT31;55785;47.946;20.540;2023-12-04T14:59:40;-1.54;81.06
67586;SHT31;55785;47.946;20.540;2023-12-04T15:02:06;-1.61;80.80
67586;SHT31;55785;47.946;20.540;2023-12-04T15:04:31;-1.66;81.05
67586;SHT31;55785;47.946;20.540;2023-12-04T15:06:57;-1.79;81.14
67586;SHT31;55785;47.946;20.540;2023-12-04T15:09:22;-1.87;81.49